Time,TemperatureF,DewpointF,PressureIn,WindDirection,WindDirectionDegrees,WindSpeedMPH,WindSpeedGustMPH,Humidity,HourlyPrecipIn,Conditions,Clouds,dailyrainin,SolarRadiationWatts/m^2,SoftwareType,DateUTC
2013-08-01 00:05:00,70.1,70.0,29.87,North,11,0.0,0.0,98,0.00,,,0.23,0,weatherlink.com 1.10,2013-08-01 04:05:00,
2013-08-01 00:20:00,69.7,69.0,29.87,North,11,0.0,0.0,98,0.00,,,0.23,0,weatherlink.com 1.10,2013-08-01 04:20:00,
2013-08-01 00:35:00,69.3,69.0,29.87,North,11,0.0,0.0,98,0.00,,,0.23,0,weatherlink.com 1.10,2013-08-01 04:35:00,
2013-08-01 00:50:00,69.0,69.0,29.86,North,11,0.0,0.0,98,0.00,,,0.23,0,weatherlink.com 1.10,2013-08-01 04:50:00,
2013-08-01 01:05:00,68.8,69.0,29.86,North,11,0.0,0.0,99,0.00,,,0.00,0,weatherlink.com 1.10,2013-08-01 05:05:00,
2013-08-01 01:20:00,68.9,69.0,29.86,North,11,0.0,1.0,99,0.00,,,0.00,0,weatherlink.com 1.10,2013-08-01 05:20:00,
2013-08-01 01:35:00,69.0,69.0,29.86,North,11,0.0,0.0,99,0.00,,,0.00,0,weatherlink.com 1.10,2013-08-01 05:35:00,
2013-08-01 01:50:00,68.9,69.0,29.86,North,11,0.0,1.0,99,0.00,,,0.00,0,weatherlink.com 1.10,2013-08-01 05:50:00,
2013-08-01 02:05:00,68.7,68.0,29.85,North,11,0.0,1.0,99,0.00,,,0.00,0,weatherlink.com 1.10,2013-08-01 06:05:00,
2013-08-01 02:20:00,68.7,68.0,29.85,North,11,0.0,1.0,99,0.00,,,0.00,0,weatherlink.com 1.10,2013-08-01 06:20:00,
2013-08-01 02:35:00,68.9,69.0,29.85,North,11,0.0,2.0,99,0.00,,,0.00,0,weatherlink.com 1.10,2013-08-01 06:35:00,
2013-08-01 02:50:00,68.6,68.0,29.85,North,11,0.0,1.0,99,0.00,,,0.00,0,weatherlink.com 1.10,2013-08-01 06:50:00,
2013-08-01 03:05:00,68.5,68.0,29.84,NNW,342,1.0,3.0,99,0.00,,,0.00,0,weatherlink.com 1.10,2013-08-01 07:05:00,
2013-08-01 03:20:00,68.3,68.0,29.84,North,350,0.0,2.0,99,0.00,,,0.00,0,weatherlink.com 1.10,2013-08-01 07:20:00,
2013-08-01 03:35:00,68.3,68.0,29.84,NNE,12,0.0,2.0,100,0.00,,,0.00,0,weatherlink.com 1.10,2013-08-01 07:35:00,
2013-08-01 04:05:00,68.3,68.0,29.84,NNE,12,0.0,1.0,100,0.00,,,0.00,0,weatherlink.com 1.10,2013-08-01 08:05:00,
2013-08-01 04:20:00,68.2,68.0,29.84,NNE,12,0.0,0.0,100,0.00,,,0.00,0,weatherlink.com 1.10,2013-08-01 08:20:00,
2013-08-01 04:35:00,68.1,68.0,29.85,NNE,12,0.0,1.0,100,0.00,,,0.00,0,weatherlink.com 1.10,2013-08-01 08:35:00,
2013-08-01 04:50:00,68.2,68.0,29.85,NNE,12,0.0,1.0,100,0.00,,,0.00,0,weatherlink.com 1.10,2013-08-01 08:50:00,
2013-08-01 05:20:00,68.5,69.0,29.85,NNE,12,0.0,1.0,100,0.00,,,0.00,0,weatherlink.com 1.10,2013-08-01 09:20:00,
2013-08-01 05:50:00,68.3,68.0,29.86,NNE,23,3.0,3.0,100,0.00,,,0.00,0,weatherlink.com 1.10,2013-08-01 09:50:00,
2013-08-01 06:05:00,68.1,68.0,29.86,NNE,14,1.0,3.0,100,0.00,,,0.00,0,weatherlink.com 1.10,2013-08-01 10:05:00,
2013-08-01 06:20:00,67.9,68.0,29.87,WNW,288,2.0,3.0,100,0.00,,,0.00,0,weatherlink.com 1.10,2013-08-01 10:20:00,
2013-08-01 06:35:00,67.8,68.0,29.88,WNW,288,0.0,2.0,100,0.00,,,0.00,0,weatherlink.com 1.10,2013-08-01 10:35:00,
2013-08-01 07:05:00,67.7,68.0,29.88,WNW,302,2.0,2.0,100,0.00,,,0.00,5,weatherlink.com 1.10,2013-08-01 11:05:00,
2013-08-01 07:20:00,67.7,68.0,29.89,WSW,251,0.0,2.0,100,0.00,,,0.00,11,weatherlink.com 1.10,2013-08-01 11:20:00,
2013-08-01 07:36:00,67.9,68.0,29.89,West,281,0.0,2.0,100,0.00,,,0.00,19,weatherlink.com 1.10,2013-08-01 11:36:00,
2013-08-01 07:51:00,68.0,68.0,29.89,NNE,19,1.0,3.0,100,0.00,,,0.00,30,weatherlink.com 1.10,2013-08-01 11:51:00,
2013-08-01 08:06:00,68.1,68.0,29.89,North,5,0.0,2.0,100,0.00,,,0.00,51,weatherlink.com 1.10,2013-08-01 12:06:00,
2013-08-01 08:36:00,68.6,69.0,29.89,North,5,1.0,2.0,100,0.00,,,0.00,84,weatherlink.com 1.10,2013-08-01 12:36:00,
2013-08-01 08:51:00,68.7,69.0,29.89,NNE,15,2.0,3.0,100,0.00,,,0.00,107,weatherlink.com 1.10,2013-08-01 12:51:00,
2013-08-01 09:06:00,68.6,69.0,29.90,North,355,0.0,2.0,100,0.00,,,0.00,97,weatherlink.com 1.10,2013-08-01 13:06:00,
2013-08-01 09:21:00,68.8,69.0,29.90,NW,326,1.0,3.0,100,0.00,,,0.00,97,weatherlink.com 1.10,2013-08-01 13:21:00,
2013-08-01 09:51:00,69.8,70.0,29.89,NW,326,0.0,2.0,100,0.00,,,0.00,186,weatherlink.com 1.10,2013-08-01 13:51:00,
2013-08-01 10:06:00,70.0,70.0,29.89,North,5,0.0,1.0,100,0.00,,,0.00,149,weatherlink.com 1.10,2013-08-01 14:06:00,
2013-08-01 12:06:00,72.8,71.0,29.92,WNW,299,1.0,5.0,93,0.00,,,0.00,107,weatherlink.com 1.10,2013-08-01 16:06:00,
2013-08-01 12:21:00,72.6,71.0,29.92,NNW,341,2.0,6.0,94,0.00,,,0.00,295,weatherlink.com 1.10,2013-08-01 16:21:00,
2013-08-01 13:06:00,73.8,71.0,29.92,WNW,292,4.0,5.0,90,0.00,,,0.00,380,weatherlink.com 1.10,2013-08-01 17:06:00,
2013-08-01 13:21:00,74.4,71.0,29.92,NW,320,1.0,5.0,89,0.00,,,0.00,459,weatherlink.com 1.10,2013-08-01 17:21:00,
2013-08-01 14:06:00,78.1,72.0,29.91,NNW,348,2.0,5.0,82,0.00,,,0.00,250,weatherlink.com 1.10,2013-08-01 18:06:00,
2013-08-01 14:22:00,78.0,71.0,29.90,NE,38,7.0,9.0,79,0.00,,,0.00,1011,weatherlink.com 1.10,2013-08-01 18:22:00,
2013-08-01 14:37:00,78.5,72.0,29.90,North,9,4.0,7.0,79,0.00,,,0.00,918,weatherlink.com 1.10,2013-08-01 18:37:00,
2013-08-01 15:07:00,79.9,71.0,29.89,NNW,334,3.0,7.0,75,0.00,,,0.00,965,weatherlink.com 1.10,2013-08-01 19:07:00,
2013-08-01 16:22:00,81.1,70.0,29.88,NW,309,2.0,8.0,68,0.00,,,0.00,819,weatherlink.com 1.10,2013-08-01 20:22:00,
2013-08-01 16:52:00,80.5,69.0,29.87,WNW,285,2.0,8.0,69,0.00,,,0.00,155,weatherlink.com 1.10,2013-08-01 20:52:00,
2013-08-01 17:07:00,81.4,68.0,29.87,WNW,299,1.0,8.0,64,0.00,,,0.00,696,weatherlink.com 1.10,2013-08-01 21:07:00,
2013-08-01 17:22:00,81.9,70.0,29.87,WNW,286,1.0,8.0,67,0.00,,,0.00,671,weatherlink.com 1.10,2013-08-01 21:22:00,
2013-08-01 17:37:00,82.4,69.0,29.87,NNE,23,2.0,6.0,65,0.00,,,0.00,599,weatherlink.com 1.10,2013-08-01 21:37:00,
2013-08-01 17:52:00,82.2,67.0,29.87,NW,304,3.0,7.0,61,0.00,,,0.00,564,weatherlink.com 1.10,2013-08-01 21:52:00,
2013-08-01 18:07:00,82.6,69.0,29.86,NW,313,6.0,6.0,63,0.00,,,0.00,492,weatherlink.com 1.10,2013-08-01 22:07:00,
2013-08-01 18:22:00,82.1,68.0,29.87,WNW,298,2.0,4.0,62,0.00,,,0.00,438,weatherlink.com 1.10,2013-08-01 22:22:00,
2013-08-01 18:37:00,82.3,68.0,29.87,NNW,346,2.0,4.0,63,0.00,,,0.00,388,weatherlink.com 1.10,2013-08-01 22:37:00,
2013-08-01 18:52:00,82.0,69.0,29.87,NNW,344,2.0,5.0,65,0.00,,,0.00,341,weatherlink.com 1.10,2013-08-01 22:52:00,
2013-08-01 19:07:00,81.5,69.0,29.87,North,5,3.0,4.0,65,0.00,,,0.00,288,weatherlink.com 1.10,2013-08-01 23:07:00,
2013-08-01 19:22:00,81.1,69.0,29.87,NW,310,1.0,3.0,66,0.00,,,0.00,230,weatherlink.com 1.10,2013-08-01 23:22:00,
2013-08-01 19:52:00,80.5,69.0,29.86,NW,319,0.0,1.0,69,0.00,,,0.00,120,weatherlink.com 1.10,2013-08-01 23:52:00,
2013-08-01 20:07:00,80.0,69.0,29.86,NW,319,0.0,1.0,69,0.00,,,0.00,69,weatherlink.com 1.10,2013-08-02 00:07:00,
2013-08-01 20:37:00,78.9,70.0,29.86,NW,319,0.0,0.0,73,0.00,,,0.00,11,weatherlink.com 1.10,2013-08-02 00:37:00,
2013-08-01 20:52:00,76.9,70.0,29.87,NW,319,0.0,0.0,79,0.00,,,0.00,0,weatherlink.com 1.10,2013-08-02 00:52:00,
2013-08-01 21:07:00,74.6,69.0,29.87,NW,319,0.0,0.0,82,0.00,,,0.00,0,weatherlink.com 1.10,2013-08-02 01:07:00,
2013-08-01 21:22:00,73.3,68.0,29.87,NNW,342,0.0,2.0,82,0.00,,,0.00,0,weatherlink.com 1.10,2013-08-02 01:22:00,
2013-08-01 21:37:00,72.1,68.0,29.87,NNW,342,0.0,0.0,86,0.00,,,0.00,0,weatherlink.com 1.10,2013-08-02 01:37:00,
2013-08-01 21:52:00,70.1,67.0,29.88,NNW,342,0.0,0.0,90,0.00,,,0.00,0,weatherlink.com 1.10,2013-08-02 01:52:00,
2013-08-01 22:07:00,68.8,66.0,29.88,NNW,342,0.0,0.0,92,0.00,,,0.00,0,weatherlink.com 1.10,2013-08-02 02:07:00,
2013-08-01 22:22:00,68.2,67.0,29.88,NNW,342,0.0,0.0,95,0.00,,,0.00,0,weatherlink.com 1.10,2013-08-02 02:22:00,
2013-08-01 22:37:00,67.6,66.0,29.89,NNW,342,0.0,0.0,94,0.00,,,0.00,0,weatherlink.com 1.10,2013-08-02 02:37:00,
2013-08-01 22:52:00,66.8,65.0,29.89,NNW,342,0.0,0.0,95,0.00,,,0.00,0,weatherlink.com 1.10,2013-08-02 02:52:00,
2013-08-01 23:07:00,66.6,66.0,29.90,NNW,342,0.0,0.0,97,0.00,,,0.00,0,weatherlink.com 1.10,2013-08-02 03:07:00,
2013-08-01 23:22:00,66.8,66.0,29.90,NNW,342,1.0,2.0,98,0.00,,,0.00,0,weatherlink.com 1.10,2013-08-02 03:22:00,
2013-08-01 23:52:00,65.9,65.0,29.90,NNW,342,0.0,0.0,96,0.00,,,0.00,0,weatherlink.com 1.10,2013-08-02 03:52:00,